logo
Search for airport 
image banner adimage banner adimage banner ad
image banner ad

SCUH - Fundo Cuincahuin

Located in Rio Bueno, Chile

ICAO - , IATA -

Data provided by Airmate  

General information

Coordinates: S40°24'48" W72°45'35"
Elevation is 387 feet MSL.
Magnetic variation is 7° East
View others Airports in Los Ríos

Operational data

Special qualification required
Current time UTC:
Current local time:
METAR: SCJO 241100Z AUTO /////KT ///V/// //// // OVC052/// 10/08 Q1021
TAF: TAF SCJO 241115Z 2412/2424 03015KT 9999 BKN020 OVC050 TN10/2412Z TX11/2418Z BECMG 2421/2423 8000 RA BKN030 OVC040
View NOTAMs / SUP AIP / TFR affecting this airport [VIEW]
Communications frequencies: [VIEW]

Runways:

RWY identifierQFULength (ft)Width (ft)SurfaceLDA (ft)
0668°328239ASPH
24248°328239ASPH

Airport contact information

Address: Rio Bueno Chile

Satellite view of SCUH